sensor_id;sensor_type;location;lat;lon;timestamp;temperature;humidity
17632;DHT22;8934;51.194;17.150;2024-01-30T00:00:57;-1.70;99.90
17632;DHT22;8934;51.194;17.150;2024-01-30T00:03:44;-1.80;99.90
17632;DHT22;8934;51.194;17.150;2024-01-30T00:06:32;-1.80;99.90
17632;DHT22;8934;51.194;17.150;2024-01-30T00:09:19;-1.80;99.90
17632;DHT22;8934;51.194;17.150;2024-01-30T00:12:07;-1.90;99.90
17632;DHT22;8934;51.194;17.150;2024-01-30T00:14:56;-1.90;99.90
17632;DHT22;8934;51.194;17.150;2024-01-30T00:17:43;-1.90;99.90
17632;DHT22;8934;51.194;17.150;2024-01-30T00:20:31;-1.90;99.90
17632;DHT22;8934;51.194;17.150;2024-01-30T00:23:18;-2.00;99.90
17632;DHT22;8934;51.194;17.150;2024-01-30T00:26:05;-2.00;99.90
17632;DHT22;8934;51.194;17.150;2024-01-30T00:28:53;-2.00;99.90
17632;DHT22;8934;51.194;17.150;2024-01-30T00:31:41;-2.00;99.90
17632;DHT22;8934;51.194;17.150;2024-01-30T00:34:29;-2.00;99.90
17632;DHT22;8934;51.194;17.150;2024-01-30T00:37:16;-2.00;99.90
17632;DHT22;8934;51.194;17.150;2024-01-30T00:40:04;-2.00;99.90
17632;DHT22;8934;51.194;17.150;2024-01-30T00:42:52;-2.00;99.90
17632;DHT22;8934;51.194;17.150;2024-01-30T00:45:40;-2.00;99.90
17632;DHT22;8934;51.194;17.150;2024-01-30T00:48:29;-2.00;99.90
17632;DHT22;8934;51.194;17.150;2024-01-30T00:51:16;-1.90;99.90
17632;DHT22;8934;51.194;17.150;2024-01-30T00:54:03;-1.90;99.90
17632;DHT22;8934;51.194;17.150;2024-01-30T00:56:52;-1.90;99.90
17632;DHT22;8934;51.194;17.150;2024-01-30T00:59:39;-1.90;99.90
17632;DHT22;8934;51.194;17.150;2024-01-30T01:02:27;-1.90;99.90
17632;DHT22;8934;51.194;17.150;2024-01-30T01:05:15;-1.90;99.90
17632;DHT22;8934;51.194;17.150;2024-01-30T01:08:04;-1.90;99.90
17632;DHT22;8934;51.194;17.150;2024-01-30T01:10:51;-1.90;99.90
17632;DHT22;8934;51.194;17.150;2024-01-30T01:13:38;-1.80;99.90
17632;DHT22;8934;51.194;17.150;2024-01-30T01:16:26;-1.80;99.90
17632;DHT22;8934;51.194;17.150;2024-01-30T01:19:13;-1.80;99.90
17632;DHT22;8934;51.194;17.150;2024-01-30T01:22:02;-1.80;99.90
17632;DHT22;8934;51.194;17.150;2024-01-30T01:24:50;-1.90;99.90
17632;DHT22;8934;51.194;17.150;2024-01-30T01:27:37;-1.90;99.90
17632;DHT22;8934;51.194;17.150;2024-01-30T01:30:27;-1.90;99.90
17632;DHT22;8934;51.194;17.150;2024-01-30T01:33:15;-1.90;99.90
17632;DHT22;8934;51.194;17.150;2024-01-30T01:36:02;-2.00;99.90
17632;DHT22;8934;51.194;17.150;2024-01-30T01:38:51;-2.00;99.90
17632;DHT22;8934;51.194;17.150;2024-01-30T01:41:39;-2.00;99.90
17632;DHT22;8934;51.194;17.150;2024-01-30T01:44:27;-2.10;99.90
17632;DHT22;8934;51.194;17.150;2024-01-30T01:47:14;-2.10;99.90
17632;DHT22;8934;51.194;17.150;2024-01-30T01:50:02;-2.10;99.90
17632;DHT22;8934;51.194;17.150;2024-01-30T01:52:50;-2.10;99.90
17632;DHT22;8934;51.194;17.150;2024-01-30T01:55:40;-2.20;99.90
17632;DHT22;8934;51.194;17.150;2024-01-30T01:58:28;-2.20;99.90
17632;DHT22;8934;51.194;17.150;2024-01-30T02:01:16;-2.20;99.90
17632;DHT22;8934;51.194;17.150;2024-01-30T02:04:06;-2.30;99.90
17632;DHT22;8934;51.194;17.150;2024-01-30T02:06:54;-2.30;99.90
17632;DHT22;8934;51.194;17.150;2024-01-30T02:09:42;-2.30;99.90
17632;DHT22;8934;51.194;17.150;2024-01-30T02:12:31;-2.30;99.90
17632;DHT22;8934;51.194;17.150;2024-01-30T02:15:18;-2.30;99.90
17632;DHT22;8934;51.194;17.150;2024-01-30T02:18:05;-2.40;99.90
17632;DHT22;8934;51.194;17.150;2024-01-30T02:20:55;-2.40;99.90
17632;DHT22;8934;51.194;17.150;2024-01-30T02:23:45;-2.40;99.90
17632;DHT22;8934;51.194;17.150;2024-01-30T02:26:33;-2.50;99.90
17632;DHT22;8934;51.194;17.150;2024-01-30T02:29:21;-2.50;99.90
17632;DHT22;8934;51.194;17.150;2024-01-30T02:32:08;-2.40;99.90
17632;DHT22;8934;51.194;17.150;2024-01-30T02:34:55;-2.40;99.90
17632;DHT22;8934;51.194;17.150;2024-01-30T02:37:43;-2.30;99.90
17632;DHT22;8934;51.194;17.150;2024-01-30T02:40:31;-2.20;99.90
17632;DHT22;8934;51.194;17.150;2024-01-30T02:43:19;-2.20;99.90
17632;DHT22;8934;51.194;17.150;2024-01-30T02:46:06;-2.10;99.90
17632;DHT22;8934;51.194;17.150;2024-01-30T02:48:53;-2.00;99.90
17632;DHT22;8934;51.194;17.150;2024-01-30T02:51:41;-2.00;99.90
17632;DHT22;8934;51.194;17.150;2024-01-30T02:54:28;-2.00;99.90
17632;DHT22;8934;51.194;17.150;2024-01-30T02:57:18;-2.00;99.90
17632;DHT22;8934;51.194;17.150;2024-01-30T03:00:06;-2.00;99.90
17632;DHT22;8934;51.194;17.150;2024-01-30T03:02:55;-2.00;99.90
17632;DHT22;8934;51.194;17.150;2024-01-30T03:05:42;-2.00;99.90
17632;DHT22;8934;51.194;17.150;2024-01-30T03:08:30;-2.00;99.90
17632;DHT22;8934;51.194;17.150;2024-01-30T03:11:17;-2.00;99.90
17632;DHT22;8934;51.194;17.150;2024-01-30T03:14:06;-2.00;99.90
17632;DHT22;8934;51.194;17.150;2024-01-30T03:16:54;-2.10;99.90
17632;DHT22;8934;51.194;17.150;2024-01-30T03:19:41;-2.10;99.90
17632;DHT22;8934;51.194;17.150;2024-01-30T03:22:28;-2.10;99.90
17632;DHT22;8934;51.194;17.150;2024-01-30T03:25:16;-2.10;99.90
17632;DHT22;8934;51.194;17.150;2024-01-30T03:28:03;-2.10;99.90
17632;DHT22;8934;51.194;17.150;2024-01-30T03:30:52;-2.20;99.90
17632;DHT22;8934;51.194;17.150;2024-01-30T03:33:39;-2.30;99.90
17632;DHT22;8934;51.194;17.150;2024-01-30T03:36:28;-2.30;99.90
17632;DHT22;8934;51.194;17.150;2024-01-30T03:39:15;-2.40;99.90
17632;DHT22;8934;51.194;17.150;2024-01-30T03:42:02;-2.50;99.90
17632;DHT22;8934;51.194;17.150;2024-01-30T03:44:50;-2.40;99.90
17632;DHT22;8934;51.194;17.150;2024-01-30T03:47:43;-2.40;99.90
17632;DHT22;8934;51.194;17.150;2024-01-30T03:50:30;-2.40;99.90
17632;DHT22;8934;51.194;17.150;2024-01-30T03:53:17;-2.40;99.90
17632;DHT22;8934;51.194;17.150;2024-01-30T03:56:05;-2.50;99.90
17632;DHT22;8934;51.194;17.150;2024-01-30T03:58:52;-2.50;99.90
17632;DHT22;8934;51.194;17.150;2024-01-30T04:01:40;-2.50;99.90
17632;DHT22;8934;51.194;17.150;2024-01-30T04:04:28;-2.50;99.90
17632;DHT22;8934;51.194;17.150;2024-01-30T04:07:16;-2.50;99.90
17632;DHT22;8934;51.194;17.150;2024-01-30T04:10:09;-2.50;99.90
17632;DHT22;8934;51.194;17.150;2024-01-30T04:12:56;-2.50;99.90
17632;DHT22;8934;51.194;17.150;2024-01-30T04:15:44;-2.50;99.90
17632;DHT22;8934;51.194;17.150;2024-01-30T04:18:31;-2.50;99.90
17632;DHT22;8934;51.194;17.150;2024-01-30T04:21:22;-2.50;99.90
17632;DHT22;8934;51.194;17.150;2024-01-30T04:24:09;-2.50;99.90
17632;DHT22;8934;51.194;17.150;2024-01-30T04:26:56;-2.50;99.90
17632;DHT22;8934;51.194;17.150;2024-01-30T04:29:43;-2.50;99.90
17632;DHT22;8934;51.194;17.150;2024-01-30T04:32:32;-2.50;99.90
17632;DHT22;8934;51.194;17.150;2024-01-30T04:35:19;-2.50;99.90
17632;DHT22;8934;51.194;17.150;2024-01-30T04:38:11;-2.40;99.90
17632;DHT22;8934;51.194;17.150;2024-01-30T04:40:58;-2.40;99.90
17632;DHT22;8934;51.194;17.150;2024-01-30T04:43:46;-2.40;99.90
17632;DHT22;8934;51.194;17.150;2024-01-30T04:46:33;-2.40;99.90
17632;DHT22;8934;51.194;17.150;2024-01-30T04:49:21;-2.30;99.90
17632;DHT22;8934;51.194;17.150;2024-01-30T04:52:10;-2.30;99.90
17632;DHT22;8934;51.194;17.150;2024-01-30T04:54:59;-2.30;99.90
17632;DHT22;8934;51.194;17.150;2024-01-30T04:57:46;-2.30;99.90
17632;DHT22;8934;51.194;17.150;2024-01-30T05:00:33;-2.30;99.90
17632;DHT22;8934;51.194;17.150;2024-01-30T05:03:21;-2.30;99.90
17632;DHT22;8934;51.194;17.150;2024-01-30T05:06:10;-2.30;99.90
17632;DHT22;8934;51.194;17.150;2024-01-30T05:08:57;-2.40;99.90
17632;DHT22;8934;51.194;17.150;2024-01-30T05:11:46;-2.40;99.90
17632;DHT22;8934;51.194;17.150;2024-01-30T05:14:33;-2.50;99.90
17632;DHT22;8934;51.194;17.150;2024-01-30T05:17:20;-2.50;99.90
17632;DHT22;8934;51.194;17.150;2024-01-30T05:20:09;-2.60;99.90
17632;DHT22;8934;51.194;17.150;2024-01-30T05:22:57;-2.70;99.90
17632;DHT22;8934;51.194;17.150;2024-01-30T05:25:44;-2.80;99.90
17632;DHT22;8934;51.194;17.150;2024-01-30T05:28:33;-2.80;99.90
17632;DHT22;8934;51.194;17.150;2024-01-30T05:31:20;-2.80;99.90
17632;DHT22;8934;51.194;17.150;2024-01-30T05:34:08;-2.80;99.90
17632;DHT22;8934;51.194;17.150;2024-01-30T05:36:55;-2.80;99.90
17632;DHT22;8934;51.194;17.150;2024-01-30T05:39:43;-2.70;99.90
17632;DHT22;8934;51.194;17.150;2024-01-30T05:42:30;-2.70;99.90
17632;DHT22;8934;51.194;17.150;2024-01-30T05:45:19;-2.70;99.90
17632;DHT22;8934;51.194;17.150;2024-01-30T05:48:06;-2.70;99.90
17632;DHT22;8934;51.194;17.150;2024-01-30T05:50:54;-2.70;99.90
17632;DHT22;8934;51.194;17.150;2024-01-30T05:53:42;-2.70;99.90
17632;DHT22;8934;51.194;17.150;2024-01-30T05:56:30;-2.70;99.90
17632;DHT22;8934;51.194;17.150;2024-01-30T05:59:17;-2.80;99.90
17632;DHT22;8934;51.194;17.150;2024-01-30T06:02:06;-2.80;99.90
17632;DHT22;8934;51.194;17.150;2024-01-30T06:04:53;-2.80;99.90
17632;DHT22;8934;51.194;17.150;2024-01-30T06:07:40;-2.90;99.90
17632;DHT22;8934;51.194;17.150;2024-01-30T06:10:28;-3.00;99.90
17632;DHT22;8934;51.194;17.150;2024-01-30T06:13:15;-3.00;99.90
17632;DHT22;8934;51.194;17.150;2024-01-30T06:16:02;-3.10;99.90
17632;DHT22;8934;51.194;17.150;2024-01-30T06:18:51;-3.10;99.90
17632;DHT22;8934;51.194;17.150;2024-01-30T06:21:38;-3.10;99.90
17632;DHT22;8934;51.194;17.150;2024-01-30T06:24:26;-3.10;99.90
17632;DHT22;8934;51.194;17.150;2024-01-30T06:27:13;-3.20;99.90
17632;DHT22;8934;51.194;17.150;2024-01-30T06:30:01;-3.20;99.90
17632;DHT22;8934;51.194;17.150;2024-01-30T06:32:49;-3.20;99.90
17632;DHT22;8934;51.194;17.150;2024-01-30T06:35:38;-3.20;99.90
17632;DHT22;8934;51.194;17.150;2024-01-30T06:38:30;-3.10;99.90
17632;DHT22;8934;51.194;17.150;2024-01-30T06:41:17;-3.10;99.90
17632;DHT22;8934;51.194;17.150;2024-01-30T06:44:04;-3.10;99.90
17632;DHT22;8934;51.194;17.150;2024-01-30T06:46:54;-3.10;99.90
17632;DHT22;8934;51.194;17.150;2024-01-30T06:49:41;-3.10;99.90
17632;DHT22;8934;51.194;17.150;2024-01-30T06:52:31;-3.00;99.90
17632;DHT22;8934;51.194;17.150;2024-01-30T06:55:18;-3.00;99.90
17632;DHT22;8934;51.194;17.150;2024-01-30T06:58:05;-3.00;99.90
17632;DHT22;8934;51.194;17.150;2024-01-30T07:00:52;-3.00;99.90
17632;DHT22;8934;51.194;17.150;2024-01-30T07:03:40;-3.00;99.90
17632;DHT22;8934;51.194;17.150;2024-01-30T07:06:27;-3.00;99.90
17632;DHT22;8934;51.194;17.150;2024-01-30T07:09:16;-2.90;99.90
17632;DHT22;8934;51.194;17.150;2024-01-30T07:12:04;-2.90;99.90
17632;DHT22;8934;51.194;17.150;2024-01-30T07:14:52;-2.70;99.90
17632;DHT22;8934;51.194;17.150;2024-01-30T07:17:39;-2.60;99.90
17632;DHT22;8934;51.194;17.150;2024-01-30T07:20:26;-2.50;99.90
17632;DHT22;8934;51.194;17.150;2024-01-30T07:23:15;-2.30;99.90
17632;DHT22;8934;51.194;17.150;2024-01-30T07:26:05;-2.20;99.90
17632;DHT22;8934;51.194;17.150;2024-01-30T07:28:52;-2.00;99.90
17632;DHT22;8934;51.194;17.150;2024-01-30T07:31:39;-2.00;99.90
17632;DHT22;8934;51.194;17.150;2024-01-30T07:34:27;-1.90;99.90
17632;DHT22;8934;51.194;17.150;2024-01-30T07:37:14;-1.70;99.90
17632;DHT22;8934;51.194;17.150;2024-01-30T07:40:03;-1.60;99.90
17632;DHT22;8934;51.194;17.150;2024-01-30T07:42:53;-1.40;99.90
17632;DHT22;8934;51.194;17.150;2024-01-30T07:45:41;-1.20;99.90
17632;DHT22;8934;51.194;17.150;2024-01-30T07:48:29;-1.00;99.90
17632;DHT22;8934;51.194;17.150;2024-01-30T07:51:16;-0.80;99.90
17632;DHT22;8934;51.194;17.150;2024-01-30T07:54:03;-0.60;99.90
17632;DHT22;8934;51.194;17.150;2024-01-30T07:56:51;-0.30;99.90
17632;DHT22;8934;51.194;17.150;2024-01-30T07:59:39;-0.10;99.90
17632;DHT22;8934;51.194;17.150;2024-01-30T08:02:28;0.20;99.90
17632;DHT22;8934;51.194;17.150;2024-01-30T08:05:16;0.40;99.90
17632;DHT22;8934;51.194;17.150;2024-01-30T08:08:04;0.70;99.90
17632;DHT22;8934;51.194;17.150;2024-01-30T08:10:51;0.90;99.90
17632;DHT22;8934;51.194;17.150;2024-01-30T08:13:39;1.10;99.90
17632;DHT22;8934;51.194;17.150;2024-01-30T08:16:28;1.30;99.90
17632;DHT22;8934;51.194;17.150;2024-01-30T08:19:15;1.60;99.90
17632;DHT22;8934;51.194;17.150;2024-01-30T08:22:03;1.90;99.90
17632;DHT22;8934;51.194;17.150;2024-01-30T08:24:50;2.10;99.90
17632;DHT22;8934;51.194;17.150;2024-01-30T08:27:38;2.40;99.90
17632;DHT22;8934;51.194;17.150;2024-01-30T08:30:25;2.60;99.90
17632;DHT22;8934;51.194;17.150;2024-01-30T08:33:14;2.80;99.90
17632;DHT22;8934;51.194;17.150;2024-01-30T08:36:01;2.90;99.90
17632;DHT22;8934;51.194;17.150;2024-01-30T08:38:49;3.10;99.90
17632;DHT22;8934;51.194;17.150;2024-01-30T08:41:40;3.40;99.90
17632;DHT22;8934;51.194;17.150;2024-01-30T08:44:27;3.60;99.90
17632;DHT22;8934;51.194;17.150;2024-01-30T08:47:15;3.80;99.90
17632;DHT22;8934;51.194;17.150;2024-01-30T08:50:05;4.10;99.90
17632;DHT22;8934;51.194;17.150;2024-01-30T08:52:53;4.40;99.90
17632;DHT22;8934;51.194;17.150;2024-01-30T08:55:40;4.60;99.90
17632;DHT22;8934;51.194;17.150;2024-01-30T08:58:27;4.80;99.90
17632;DHT22;8934;51.194;17.150;2024-01-30T09:01:15;5.10;99.90
17632;DHT22;8934;51.194;17.150;2024-01-30T09:04:03;5.30;99.90
17632;DHT22;8934;51.194;17.150;2024-01-30T09:06:53;5.50;99.90
17632;DHT22;8934;51.194;17.150;2024-01-30T09:09:40;5.70;99.90
17632;DHT22;8934;51.194;17.150;2024-01-30T09:12:28;5.80;99.90
17632;DHT22;8934;51.194;17.150;2024-01-30T09:15:15;6.00;99.90
17632;DHT22;8934;51.194;17.150;2024-01-30T09:18:03;6.10;99.90
17632;DHT22;8934;51.194;17.150;2024-01-30T09:20:50;6.30;99.90
17632;DHT22;8934;51.194;17.150;2024-01-30T09:23:39;6.50;99.90
17632;DHT22;8934;51.194;17.150;2024-01-30T09:26:26;6.70;99.90
17632;DHT22;8934;51.194;17.150;2024-01-30T09:29:13;6.80;99.90
17632;DHT22;8934;51.194;17.150;2024-01-30T09:32:01;7.00;99.90
17632;DHT22;8934;51.194;17.150;2024-01-30T09:34:48;7.20;99.90
17632;DHT22;8934;51.194;17.150;2024-01-30T09:37:35;7.30;99.90
17632;DHT22;8934;51.194;17.150;2024-01-30T09:40:25;7.40;99.90
17632;DHT22;8934;51.194;17.150;2024-01-30T09:43:17;7.50;99.90
17632;DHT22;8934;51.194;17.150;2024-01-30T09:46:12;7.70;99.90
17632;DHT22;8934;51.194;17.150;2024-01-30T09:49:02;7.90;99.90
17632;DHT22;8934;51.194;17.150;2024-01-30T09:51:49;8.00;99.90
17632;DHT22;8934;51.194;17.150;2024-01-30T09:54:38;8.10;99.90
17632;DHT22;8934;51.194;17.150;2024-01-30T09:57:27;8.20;99.90
17632;DHT22;8934;51.194;17.150;2024-01-30T10:00:14;8.20;99.90
17632;DHT22;8934;51.194;17.150;2024-01-30T10:03:02;8.40;99.90
17632;DHT22;8934;51.194;17.150;2024-01-30T10:05:51;8.50;99.90
17632;DHT22;8934;51.194;17.150;2024-01-30T10:08:39;8.60;99.90
17632;DHT22;8934;51.194;17.150;2024-01-30T10:11:27;8.70;99.90
17632;DHT22;8934;51.194;17.150;2024-01-30T10:14:16;8.80;99.90
17632;DHT22;8934;51.194;17.150;2024-01-30T10:17:03;8.90;99.90
17632;DHT22;8934;51.194;17.150;2024-01-30T10:20:05;9.00;99.90
17632;DHT22;8934;51.194;17.150;2024-01-30T10:22:53;9.10;99.90
17632;DHT22;8934;51.194;17.150;2024-01-30T10:25:40;9.20;99.90
17632;DHT22;8934;51.194;17.150;2024-01-30T10:28:28;9.30;99.90
17632;DHT22;8934;51.194;17.150;2024-01-30T10:31:18;9.40;99.90
17632;DHT22;8934;51.194;17.150;2024-01-30T10:34:05;9.60;99.90
17632;DHT22;8934;51.194;17.150;2024-01-30T10:37:08;9.60;99.90
17632;DHT22;8934;51.194;17.150;2024-01-30T10:40:03;9.50;99.90
17632;DHT22;8934;51.194;17.150;2024-01-30T10:42:53;9.50;99.90
17632;DHT22;8934;51.194;17.150;2024-01-30T10:45:44;9.40;99.90
17632;DHT22;8934;51.194;17.150;2024-01-30T10:48:36;9.50;99.90
17632;DHT22;8934;51.194;17.150;2024-01-30T10:51:29;9.70;99.90
17632;DHT22;8934;51.194;17.150;2024-01-30T10:54:18;9.80;99.90
17632;DHT22;8934;51.194;17.150;2024-01-30T10:57:07;9.90;99.90
17632;DHT22;8934;51.194;17.150;2024-01-30T10:59:58;10.00;99.90
17632;DHT22;8934;51.194;17.150;2024-01-30T11:02:46;10.20;99.90
17632;DHT22;8934;51.194;17.150;2024-01-30T11:05:35;10.30;99.90
17632;DHT22;8934;51.194;17.150;2024-01-30T11:08:24;10.30;99.90
17632;DHT22;8934;51.194;17.150;2024-01-30T11:11:12;10.20;99.90
17632;DHT22;8934;51.194;17.150;2024-01-30T11:14:03;10.10;99.90
17632;DHT22;8934;51.194;17.150;2024-01-30T11:16:50;9.90;99.90
17632;DHT22;8934;51.194;17.150;2024-01-30T11:19:37;9.80;99.90
17632;DHT22;8934;51.194;17.150;2024-01-30T11:22:26;9.70;99.90
17632;DHT22;8934;51.194;17.150;2024-01-30T11:25:19;9.60;99.90
17632;DHT22;8934;51.194;17.150;2024-01-30T11:28:13;9.60;99.90
17632;DHT22;8934;51.194;17.150;2024-01-30T11:31:05;9.60;99.90
17632;DHT22;8934;51.194;17.150;2024-01-30T11:33:55;9.60;99.90
17632;DHT22;8934;51.194;17.150;2024-01-30T11:36:43;9.70;99.90
17632;DHT22;8934;51.194;17.150;2024-01-30T11:39:34;9.80;99.90
17632;DHT22;8934;51.194;17.150;2024-01-30T11:42:23;10.00;99.90
17632;DHT22;8934;51.194;17.150;2024-01-30T11:45:12;10.30;99.90
17632;DHT22;8934;51.194;17.150;2024-01-30T11:47:59;10.60;99.90
17632;DHT22;8934;51.194;17.150;2024-01-30T11:50:49;10.70;99.90
17632;DHT22;8934;51.194;17.150;2024-01-30T11:53:38;10.80;99.90
17632;DHT22;8934;51.194;17.150;2024-01-30T11:56:27;10.80;99.90
17632;DHT22;8934;51.194;17.150;2024-01-30T11:59:14;10.60;99.90
17632;DHT22;8934;51.194;17.150;2024-01-30T12:02:01;10.40;99.90
17632;DHT22;8934;51.194;17.150;2024-01-30T12:04:49;10.30;99.90
17632;DHT22;8934;51.194;17.150;2024-01-30T12:07:37;10.10;99.90
17632;DHT22;8934;51.194;17.150;2024-01-30T12:10:25;10.00;99.90
17632;DHT22;8934;51.194;17.150;2024-01-30T12:13:15;10.10;99.90
17632;DHT22;8934;51.194;17.150;2024-01-30T12:16:03;10.40;99.90
17632;DHT22;8934;51.194;17.150;2024-01-30T12:18:59;10.80;99.90
17632;DHT22;8934;51.194;17.150;2024-01-30T12:21:54;11.20;99.90
17632;DHT22;8934;51.194;17.150;2024-01-30T12:24:41;11.50;99.90
17632;DHT22;8934;51.194;17.150;2024-01-30T12:27:29;11.80;99.90
17632;DHT22;8934;51.194;17.150;2024-01-30T12:30:19;12.00;99.90
17632;DHT22;8934;51.194;17.150;2024-01-30T12:33:08;12.20;99.90
17632;DHT22;8934;51.194;17.150;2024-01-30T12:35:56;12.20;99.90
17632;DHT22;8934;51.194;17.150;2024-01-30T12:38:49;12.20;99.90
17632;DHT22;8934;51.194;17.150;2024-01-30T12:41:36;12.30;99.90
17632;DHT22;8934;51.194;17.150;2024-01-30T12:44:24;12.40;99.90
17632;DHT22;8934;51.194;17.150;2024-01-30T12:47:12;12.40;99.90
17632;DHT22;8934;51.194;17.150;2024-01-30T12:50:02;12.50;99.90
17632;DHT22;8934;51.194;17.150;2024-01-30T12:52:50;12.50;99.90
17632;DHT22;8934;51.194;17.150;2024-01-30T12:55:37;12.50;99.90
17632;DHT22;8934;51.194;17.150;2024-01-30T12:58:25;12.60;99.90
17632;DHT22;8934;51.194;17.150;2024-01-30T13:01:12;12.60;99.90
17632;DHT22;8934;51.194;17.150;2024-01-30T13:04:01;12.60;99.90
17632;DHT22;8934;51.194;17.150;2024-01-30T13:06:49;12.60;99.90
17632;DHT22;8934;51.194;17.150;2024-01-30T13:09:36;12.60;99.90
17632;DHT22;8934;51.194;17.150;2024-01-30T13:12:24;12.60;99.90
17632;DHT22;8934;51.194;17.150;2024-01-30T13:15:11;12.60;99.90
17632;DHT22;8934;51.194;17.150;2024-01-30T13:17:58;12.50;99.90
17632;DHT22;8934;51.194;17.150;2024-01-30T13:20:47;12.40;99.90
17632;DHT22;8934;51.194;17.150;2024-01-30T13:23:34;12.20;99.90
17632;DHT22;8934;51.194;17.150;2024-01-30T13:26:22;12.10;99.90
17632;DHT22;8934;51.194;17.150;2024-01-30T13:29:09;12.10;99.90
17632;DHT22;8934;51.194;17.150;2024-01-30T13:31:56;11.90;99.90
17632;DHT22;8934;51.194;17.150;2024-01-30T13:34:44;11.60;99.90
17632;DHT22;8934;51.194;17.150;2024-01-30T13:37:33;11.30;99.90
17632;DHT22;8934;51.194;17.150;2024-01-30T13:40:21;11.00;99.90
17632;DHT22;8934;51.194;17.150;2024-01-30T13:43:09;10.70;99.90
17632;DHT22;8934;51.194;17.150;2024-01-30T13:45:56;10.50;99.90
17632;DHT22;8934;51.194;17.150;2024-01-30T13:48:44;10.30;99.90
17632;DHT22;8934;51.194;17.150;2024-01-30T13:51:31;10.00;99.90
17632;DHT22;8934;51.194;17.150;2024-01-30T13:54:20;10.00;99.90
17632;DHT22;8934;51.194;17.150;2024-01-30T13:57:07;9.80;99.90
17632;DHT22;8934;51.194;17.150;2024-01-30T13:59:55;9.70;99.90
17632;DHT22;8934;51.194;17.150;2024-01-30T14:02:43;9.70;99.90
17632;DHT22;8934;51.194;17.150;2024-01-30T14:05:30;9.80;99.90
17632;DHT22;8934;51.194;17.150;2024-01-30T14:08:18;10.20;99.90
17632;DHT22;8934;51.194;17.150;2024-01-30T14:11:09;10.40;99.90
17632;DHT22;8934;51.194;17.150;2024-01-30T14:13:56;10.70;99.90
17632;DHT22;8934;51.194;17.150;2024-01-30T14:16:44;11.10;99.90
17632;DHT22;8934;51.194;17.150;2024-01-30T14:19:31;11.20;99.90
17632;DHT22;8934;51.194;17.150;2024-01-30T14:22:19;11.00;99.90
17632;DHT22;8934;51.194;17.150;2024-01-30T14:25:07;11.00;99.90
17632;DHT22;8934;51.194;17.150;2024-01-30T14:27:56;11.30;99.90
17632;DHT22;8934;51.194;17.150;2024-01-30T14:30:43;11.40;99.90
17632;DHT22;8934;51.194;17.150;2024-01-30T14:33:31;11.00;99.90
17632;DHT22;8934;51.194;17.150;2024-01-30T14:36:18;10.40;99.90
17632;DHT22;8934;51.194;17.150;2024-01-30T14:39:06;9.90;99.90
17632;DHT22;8934;51.194;17.150;2024-01-30T14:41:53;9.50;99.90
17632;DHT22;8934;51.194;17.150;2024-01-30T14:44:42;9.20;99.90
17632;DHT22;8934;51.194;17.150;2024-01-30T14:47:30;8.90;99.90
17632;DHT22;8934;51.194;17.150;2024-01-30T14:50:17;8.80;99.90
17632;DHT22;8934;51.194;17.150;2024-01-30T14:53:05;8.70;99.90
17632;DHT22;8934;51.194;17.150;2024-01-30T14:55:53;8.50;99.90
17632;DHT22;8934;51.194;17.150;2024-01-30T14:58:43;8.30;99.90
17632;DHT22;8934;51.194;17.150;2024-01-30T15:01:32;8.20;99.90
17632;DHT22;8934;51.194;17.150;2024-01-30T15:04:19;8.00;99.90
17632;DHT22;8934;51.194;17.150;2024-01-30T15:07:06;7.90;99.90
17632;DHT22;8934;51.194;17.150;2024-01-30T15:09:54;7.70;99.90
17632;DHT22;8934;51.194;17.150;2024-01-30T15:12:41;7.60;99.90
17632;DHT22;8934;51.194;17.150;2024-01-30T15:15:29;7.50;99.90
17632;DHT22;8934;51.194;17.150;2024-01-30T15:18:18;7.30;99.90
17632;DHT22;8934;51.194;17.150;2024-01-30T15:21:05;7.10;99.90
17632;DHT22;8934;51.194;17.150;2024-01-30T15:23:53;7.00;99.90
17632;DHT22;8934;51.194;17.150;2024-01-30T15:26:40;6.80;99.90
17632;DHT22;8934;51.194;17.150;2024-01-30T15:29:27;6.60;99.90
17632;DHT22;8934;51.194;17.150;2024-01-30T15:32:15;6.40;99.90
17632;DHT22;8934;51.194;17.150;2024-01-30T15:35:05;6.30;99.90
17632;DHT22;8934;51.194;17.150;2024-01-30T15:37:53;6.20;99.90
17632;DHT22;8934;51.194;17.150;2024-01-30T15:40:40;6.10;99.90
17632;DHT22;8934;51.194;17.150;2024-01-30T15:43:27;5.90;99.90
17632;DHT22;8934;51.194;17.150;2024-01-30T15:46:15;5.80;99.90
17632;DHT22;8934;51.194;17.150;2024-01-30T15:49:02;5.70;99.90
17632;DHT22;8934;51.194;17.150;2024-01-30T15:51:52;5.50;99.90
17632;DHT22;8934;51.194;17.150;2024-01-30T15:54:39;5.40;99.90
17632;DHT22;8934;51.194;17.150;2024-01-30T15:57:26;5.30;99.90
17632;DHT22;8934;51.194;17.150;2024-01-30T16:00:16;5.20;99.90
17632;DHT22;8934;51.194;17.150;2024-01-30T16:03:04;5.20;99.90
17632;DHT22;8934;51.194;17.150;2024-01-30T16:05:51;5.10;99.90
17632;DHT22;8934;51.194;17.150;2024-01-30T16:08:40;5.00;99.90
17632;DHT22;8934;51.194;17.150;2024-01-30T16:14:18;5.00;99.90
17632;DHT22;8934;51.194;17.150;2024-01-30T16:17:05;5.00;99.90
17632;DHT22;8934;51.194;17.150;2024-01-30T16:19:52;5.00;99.90
17632;DHT22;8934;51.194;17.150;2024-01-30T16:22:40;5.10;99.90
17632;DHT22;8934;51.194;17.150;2024-01-30T16:25:28;5.10;99.90
17632;DHT22;8934;51.194;17.150;2024-01-30T16:28:16;5.10;99.90
17632;DHT22;8934;51.194;17.150;2024-01-30T16:31:03;5.00;99.90
17632;DHT22;8934;51.194;17.150;2024-01-30T16:33:51;5.00;99.90
17632;DHT22;8934;51.194;17.150;2024-01-30T16:36:38;4.90;99.90
17632;DHT22;8934;51.194;17.150;2024-01-30T16:39:26;4.80;99.90
17632;DHT22;8934;51.194;17.150;2024-01-30T16:42:15;4.80;99.90
17632;DHT22;8934;51.194;17.150;2024-01-30T16:45:03;4.70;99.90
17632;DHT22;8934;51.194;17.150;2024-01-30T16:47:50;4.60;99.90
17632;DHT22;8934;51.194;17.150;2024-01-30T16:50:38;4.60;99.90
17632;DHT22;8934;51.194;17.150;2024-01-30T16:53:25;4.50;99.90
17632;DHT22;8934;51.194;17.150;2024-01-30T16:56:13;4.50;99.90
17632;DHT22;8934;51.194;17.150;2024-01-30T16:59:02;4.40;99.90
17632;DHT22;8934;51.194;17.150;2024-01-30T17:01:49;4.30;99.90
17632;DHT22;8934;51.194;17.150;2024-01-30T17:04:37;4.30;99.90
17632;DHT22;8934;51.194;17.150;2024-01-30T17:07:24;4.30;99.90
17632;DHT22;8934;51.194;17.150;2024-01-30T17:10:12;4.30;99.90
17632;DHT22;8934;51.194;17.150;2024-01-30T17:13:02;4.30;99.90
17632;DHT22;8934;51.194;17.150;2024-01-30T17:15:51;4.30;99.90
17632;DHT22;8934;51.194;17.150;2024-01-30T17:18:38;4.40;99.90
17632;DHT22;8934;51.194;17.150;2024-01-30T17:21:25;4.40;99.90
17632;DHT22;8934;51.194;17.150;2024-01-30T17:24:13;4.40;99.90
17632;DHT22;8934;51.194;17.150;2024-01-30T17:27:01;4.40;99.90
17632;DHT22;8934;51.194;17.150;2024-01-30T17:29:49;4.30;99.90
17632;DHT22;8934;51.194;17.150;2024-01-30T17:32:37;4.30;99.90
17632;DHT22;8934;51.194;17.150;2024-01-30T17:35:25;4.30;99.90
17632;DHT22;8934;51.194;17.150;2024-01-30T17:38:12;4.20;99.90
17632;DHT22;8934;51.194;17.150;2024-01-30T17:40:59;4.20;99.90
17632;DHT22;8934;51.194;17.150;2024-01-30T17:43:57;4.10;99.90
17632;DHT22;8934;51.194;17.150;2024-01-30T17:46:44;4.10;99.90
17632;DHT22;8934;51.194;17.150;2024-01-30T17:49:34;4.00;99.90
17632;DHT22;8934;51.194;17.150;2024-01-30T17:52:21;3.90;99.90